createdAt,value
2023-03-10T00:01:32.241Z,40.24
2023-03-10T00:04:01.512Z,40.55
2023-03-10T00:06:34.740Z,40.49
2023-03-10T00:09:03.436Z,40.27
2023-03-10T00:11:31.266Z,40.49
2023-03-10T00:13:59.017Z,40.48
2023-03-10T00:16:29.428Z,40.11
2023-03-10T00:18:57.559Z,40.23
2023-03-10T00:21:28.392Z,40.18
2023-03-10T00:23:56.926Z,40.25
2023-03-10T00:26:28.223Z,40.19
2023-03-10T00:28:56.567Z,40.04
2023-03-10T00:31:26.667Z,40.35
2023-03-10T00:33:57.070Z,40.10
2023-03-10T00:36:29.144Z,40.23
2023-03-10T00:39:01.315Z,40.16
2023-03-10T00:41:31.244Z,40.28
2023-03-10T00:44:00.029Z,40.14
2023-03-10T00:46:30.151Z,40.24
2023-03-10T00:48:58.866Z,40.20
2023-03-10T00:51:26.558Z,40.18
2023-03-10T00:53:56.124Z,40.19
2023-03-10T00:56:25.896Z,40.26
2023-03-10T00:58:56.496Z,40.22
2023-03-10T01:01:35.860Z,39.77
2023-03-10T01:04:07.286Z,39.90
2023-03-10T01:06:35.852Z,40.14
2023-03-10T01:09:04.906Z,39.76
2023-03-10T01:11:34.644Z,39.61
2023-03-10T01:14:07.245Z,39.58
2023-03-10T01:16:35.357Z,39.61
2023-03-10T01:19:03.263Z,39.79
2023-03-10T01:21:33.524Z,39.49
2023-03-10T01:24:02.114Z,39.69
2023-03-10T01:26:30.930Z,39.62
2023-03-10T01:28:58.970Z,39.49
2023-03-10T01:31:26.824Z,39.05
2023-03-10T01:33:55.277Z,39.22
2023-03-10T01:36:26.257Z,38.94
2023-03-10T01:38:56.171Z,39.54
2023-03-10T01:41:24.899Z,39.48
2023-03-10T01:43:55.189Z,39.01
2023-03-10T01:46:36.437Z,39.01
2023-03-10T01:49:30.712Z,38.74
2023-03-10T01:52:12.911Z,38.73
2023-03-10T01:55:02.156Z,38.79
2023-03-10T01:57:33.826Z,38.71
2023-03-10T02:00:01.809Z,38.41
2023-03-10T02:02:35.156Z,38.58
2023-03-10T02:05:03.146Z,38.67
2023-03-10T02:07:36.372Z,38.54
2023-03-10T02:10:05.718Z,38.70
2023-03-10T02:12:33.751Z,38.27
2023-03-10T02:15:01.669Z,38.40
2023-03-10T02:17:29.585Z,38.18
2023-03-10T02:20:13.807Z,38.21
2023-03-10T02:22:42.185Z,38.57
2023-03-10T02:25:25.685Z,38.65
2023-03-10T02:27:54.017Z,38.42
2023-03-10T02:30:52.709Z,38.17
2023-03-10T02:33:25.873Z,38.54
2023-03-10T02:36:04.042Z,37.99
2023-03-10T02:38:31.830Z,38.24
2023-03-10T02:40:59.888Z,38.26
2023-03-10T02:43:33.881Z,37.88
2023-03-10T02:46:09.956Z,37.98
2023-03-10T02:48:42.729Z,38.19
2023-03-10T02:51:24.761Z,38.11
2023-03-10T02:53:54.098Z,38.05
2023-03-10T02:56:22.569Z,38.14
2023-03-10T02:58:51.488Z,38.01
2023-03-10T03:01:19.930Z,37.89
2023-03-10T03:03:47.888Z,37.84
2023-03-10T03:06:16.017Z,37.83
2023-03-10T03:08:45.333Z,37.92
2023-03-10T03:11:17.360Z,38.21
2023-03-10T03:13:45.744Z,38.03
2023-03-10T03:16:14.855Z,38.22
2023-03-10T03:18:44.484Z,38.24
2023-03-10T03:21:17.958Z,38.11
2023-03-10T03:23:47.587Z,38.08
2023-03-10T03:26:23.698Z,38.12
2023-03-10T03:28:54.705Z,38.11
2023-03-10T03:31:27.108Z,38.07
2023-03-10T03:34:05.754Z,38.04
2023-03-10T03:36:33.664Z,38.14
2023-03-10T03:39:02.649Z,38.01
2023-03-10T03:41:33.428Z,38.28
2023-03-10T03:44:01.718Z,37.97
2023-03-10T03:46:31.330Z,38.19
2023-03-10T03:49:00.373Z,37.86
2023-03-10T03:51:30.439Z,38.06
2023-03-10T03:53:59.109Z,38.02
2023-03-10T03:56:26.928Z,38.00
2023-03-10T03:58:54.838Z,37.82
2023-03-10T04:01:22.752Z,37.92
2023-03-10T04:03:56.328Z,38.29
2023-03-10T04:06:24.439Z,37.91
2023-03-10T04:08:53.884Z,38.02
2023-03-10T04:11:24.166Z,37.87
2023-03-10T04:13:53.248Z,37.83
2023-03-10T04:16:23.441Z,37.59
2023-03-10T04:18:51.617Z,37.72
2023-03-10T04:21:19.501Z,37.76
2023-03-10T04:23:49.518Z,37.69
2023-03-10T04:26:22.113Z,37.50
2023-03-10T04:28:51.209Z,37.53
2023-03-10T04:31:20.864Z,37.54
2023-03-10T04:33:51.494Z,37.63
2023-03-10T04:36:21.166Z,37.67
2023-03-10T04:38:52.716Z,37.46
2023-03-10T04:41:23.462Z,37.61
2023-03-10T04:43:52.020Z,37.85
2023-03-10T04:46:20.792Z,37.64
2023-03-10T04:48:48.964Z,37.60
2023-03-10T04:51:18.286Z,37.69
2023-03-10T04:53:51.871Z,37.22
2023-03-10T04:56:20.841Z,37.39
2023-03-10T04:58:48.818Z,37.37
2023-03-10T05:01:17.205Z,37.40
2023-03-10T05:03:51.652Z,36.95
2023-03-10T05:06:21.699Z,37.06
2023-03-10T05:08:58.214Z,37.32
2023-03-10T05:11:26.141Z,37.24
2023-03-10T05:13:54.222Z,37.35
2023-03-10T05:16:23.108Z,37.22
2023-03-10T05:18:53.730Z,37.39
2023-03-10T05:21:25.893Z,37.29
2023-03-10T05:23:56.517Z,37.71
2023-03-10T05:26:25.691Z,37.43
2023-03-10T05:28:53.709Z,37.33
2023-03-10T05:31:36.330Z,37.37
2023-03-10T05:34:10.219Z,37.61
2023-03-10T05:36:38.269Z,37.61
2023-03-10T05:39:13.511Z,37.38
2023-03-10T05:41:45.738Z,37.24
2023-03-10T05:44:13.568Z,37.11
2023-03-10T05:46:41.863Z,37.12
2023-03-10T05:49:10.364Z,37.07
2023-03-10T05:51:39.700Z,37.25
2023-03-10T05:54:07.658Z,36.94
2023-03-10T05:56:35.627Z,36.99
2023-03-10T05:59:04.621Z,37.31
2023-03-10T06:01:35.296Z,36.95
2023-03-10T06:04:03.916Z,37.46
2023-03-10T06:06:31.921Z,36.90
2023-03-10T06:09:00.052Z,36.66
2023-03-10T06:11:28.045Z,36.71
2023-03-10T06:13:56.016Z,36.98
2023-03-10T06:16:23.695Z,37.34
2023-03-10T06:18:57.015Z,36.91
2023-03-10T06:21:25.533Z,37.19
2023-03-10T06:23:53.345Z,36.70
2023-03-10T06:26:23.209Z,37.17
2023-03-10T06:28:51.062Z,36.63
2023-03-10T06:31:24.720Z,36.11
2023-03-10T06:33:53.030Z,36.45
2023-03-10T06:36:22.587Z,36.23
2023-03-10T06:38:50.488Z,36.22
2023-03-10T06:41:18.558Z,36.48
2023-03-10T06:43:46.769Z,36.07
2023-03-10T06:46:15.635Z,36.07
2023-03-10T06:48:44.097Z,36.38
2023-03-10T06:51:16.644Z,36.32
2023-03-10T06:53:44.508Z,36.34
2023-03-10T06:56:20.599Z,36.60
2023-03-10T06:58:49.147Z,36.30
2023-03-10T07:01:32.179Z,36.16
2023-03-10T07:04:01.480Z,36.24
2023-03-10T07:06:29.435Z,36.42
2023-03-10T07:08:57.922Z,36.54
2023-03-10T07:11:30.244Z,35.95
2023-03-10T07:13:58.026Z,36.32
2023-03-10T07:16:25.867Z,36.53
2023-03-10T07:18:53.705Z,36.22
2023-03-10T07:21:22.018Z,36.02
2023-03-10T07:23:50.266Z,36.29
2023-03-10T07:26:21.717Z,36.25
2023-03-10T07:28:49.552Z,36.65
2023-03-10T07:31:17.692Z,36.17
2023-03-10T07:33:45.773Z,36.23
2023-03-10T07:36:16.659Z,36.54
2023-03-10T07:38:44.740Z,36.61
2023-03-10T07:41:19.374Z,36.16
2023-03-10T07:43:47.248Z,36.07
2023-03-10T07:46:15.854Z,36.11
2023-03-10T07:48:44.268Z,36.43
2023-03-10T07:51:14.913Z,36.36
2023-03-10T07:53:43.561Z,36.65
2023-03-10T07:56:13.119Z,36.14
2023-03-10T07:58:41.303Z,36.26
2023-03-10T08:01:14.201Z,36.30
2023-03-10T08:03:42.227Z,36.76
2023-03-10T08:06:17.100Z,36.91
2023-03-10T08:08:44.999Z,36.88
2023-03-10T08:11:12.820Z,37.05
2023-03-10T08:13:40.662Z,37.65
2023-03-10T08:16:08.984Z,37.27
2023-03-10T08:18:37.006Z,36.91
2023-03-10T08:21:08.148Z,37.03
2023-03-10T08:23:37.939Z,36.66
2023-03-10T08:26:10.034Z,36.51
2023-03-10T08:28:39.043Z,36.79
2023-03-10T08:31:16.170Z,36.58
2023-03-10T08:33:45.505Z,38.36
2023-03-10T08:36:20.579Z,37.53
2023-03-10T08:38:49.996Z,37.13
2023-03-10T08:41:39.197Z,37.36
2023-03-10T08:44:07.511Z,37.51
2023-03-10T08:46:35.577Z,36.94
2023-03-10T08:49:03.628Z,37.13
2023-03-10T08:51:31.311Z,37.18
2023-03-10T08:54:00.117Z,40.84
2023-03-10T08:56:28.271Z,40.97
2023-03-10T08:58:59.438Z,38.10
2023-03-10T09:01:30.061Z,36.81
2023-03-10T09:03:59.315Z,38.07
2023-03-10T09:06:27.439Z,37.17
2023-03-10T09:08:55.584Z,36.28
2023-03-10T09:11:26.715Z,36.03
2023-03-10T09:13:55.642Z,36.13
2023-03-10T09:16:25.749Z,36.42
2023-03-10T09:18:55.646Z,36.20
2023-03-10T09:21:23.943Z,36.55
2023-03-10T09:23:53.228Z,36.30
2023-03-10T09:26:22.290Z,36.36
2023-03-10T09:28:51.701Z,36.72
2023-03-10T09:31:24.839Z,36.87
2023-03-10T09:33:52.563Z,36.02
2023-03-10T09:36:20.506Z,36.56
2023-03-10T09:38:48.854Z,36.51
2023-03-10T09:41:49.052Z,36.20
2023-03-10T09:44:39.217Z,36.07
2023-03-10T09:47:42.372Z,36.42
2023-03-10T09:50:37.575Z,36.77
2023-03-10T09:53:19.811Z,36.93
2023-03-10T09:55:49.011Z,36.38
2023-03-10T09:58:34.030Z,35.76
2023-03-10T10:01:03.545Z,36.28
2023-03-10T10:03:52.267Z,36.30
2023-03-10T10:06:32.818Z,36.47
2023-03-10T10:09:12.540Z,36.39
2023-03-10T10:11:40.468Z,36.32
2023-03-10T10:14:31.961Z,36.30
2023-03-10T10:17:21.096Z,35.92
2023-03-10T10:19:50.003Z,35.79
2023-03-10T10:22:34.662Z,35.35
2023-03-10T10:25:08.675Z,35.98
2023-03-10T10:27:42.356Z,36.02
2023-03-10T10:30:28.628Z,35.78
2023-03-10T10:32:59.819Z,35.76
2023-03-10T10:35:31.014Z,35.14
2023-03-10T10:38:09.729Z,34.97
2023-03-10T10:41:07.496Z,35.49
2023-03-10T10:43:44.620Z,35.63
2023-03-10T10:46:18.252Z,35.88
2023-03-10T10:48:48.647Z,36.07
2023-03-10T10:51:19.619Z,36.31
2023-03-10T10:53:48.495Z,36.09
2023-03-10T10:56:20.873Z,36.19
2023-03-10T10:59:28.119Z,35.69
2023-03-10T11:01:59.018Z,36.00
2023-03-10T11:04:41.695Z,36.19
2023-03-10T11:07:38.948Z,36.19
2023-03-10T11:10:14.640Z,36.38
2023-03-10T11:13:05.724Z,35.82
2023-03-10T11:15:38.135Z,36.12
2023-03-10T11:18:20.756Z,35.62
2023-03-10T11:21:23.758Z,36.53
2023-03-10T11:24:26.013Z,35.60
2023-03-10T11:27:06.938Z,38.24
2023-03-10T11:29:48.174Z,37.22
2023-03-10T11:32:35.723Z,34.76
2023-03-10T11:35:19.190Z,34.50
2023-03-10T11:37:56.194Z,34.48
2023-03-10T11:40:27.013Z,33.91
2023-03-10T11:43:06.235Z,34.12
2023-03-10T11:45:46.210Z,33.82
2023-03-10T11:48:23.095Z,34.13
2023-03-10T11:50:55.077Z,34.57
2023-03-10T11:53:34.993Z,33.81
2023-03-10T11:56:07.397Z,33.80
2023-03-10T11:59:01.219Z,34.05
2023-03-10T12:01:38.977Z,34.50
2023-03-10T12:04:16.897Z,34.47
2023-03-10T12:06:44.908Z,34.86
2023-03-10T12:09:30.414Z,33.84
2023-03-10T12:11:59.037Z,34.87
2023-03-10T12:14:26.871Z,34.56
2023-03-10T12:16:56.798Z,34.12
2023-03-10T12:19:24.558Z,34.94
2023-03-10T12:22:31.191Z,35.11
2023-03-10T12:24:59.158Z,35.12
2023-03-10T12:27:27.032Z,35.14
2023-03-10T12:29:54.912Z,34.64
2023-03-10T12:32:42.202Z,34.21
2023-03-10T12:35:47.766Z,35.79
2023-03-10T12:38:30.224Z,36.99
2023-03-10T12:41:00.574Z,37.05
2023-03-10T12:43:37.603Z,36.84
2023-03-10T12:46:09.944Z,36.37
2023-03-10T12:48:43.845Z,36.51
2023-03-10T12:51:17.440Z,35.43
2023-03-10T12:54:02.502Z,37.39
2023-03-10T12:56:43.441Z,35.57
2023-03-10T12:59:19.681Z,36.98
2023-03-10T13:01:55.908Z,38.42
2023-03-10T13:04:27.002Z,37.75
2023-03-10T13:07:04.015Z,37.77
2023-03-10T13:09:43.513Z,37.70
2023-03-10T13:12:46.265Z,38.00
2023-03-10T13:15:26.474Z,37.03
2023-03-10T13:17:57.112Z,36.20
2023-03-10T13:20:28.149Z,36.52
2023-03-10T13:22:58.994Z,37.98
2023-03-10T13:25:27.011Z,38.32
2023-03-10T13:27:57.652Z,38.17
2023-03-10T13:30:28.056Z,38.07
2023-03-10T13:32:58.704Z,37.38
2023-03-10T13:35:32.069Z,36.66
2023-03-10T13:38:24.814Z,36.19
2023-03-10T13:41:04.069Z,35.43
2023-03-10T13:43:48.694Z,37.68
2023-03-10T13:46:29.062Z,36.10
2023-03-10T13:49:03.994Z,35.25
2023-03-10T13:51:35.469Z,35.24
2023-03-10T13:54:21.846Z,36.48
2023-03-10T13:56:57.475Z,36.07
2023-03-10T13:59:32.097Z,35.06
2023-03-10T14:02:02.207Z,35.11
2023-03-10T14:04:42.232Z,34.65
2023-03-10T14:07:19.901Z,37.51
2023-03-10T14:10:10.440Z,35.79
2023-03-10T14:12:48.427Z,34.57
2023-03-10T14:15:30.746Z,32.84
2023-03-10T14:18:07.830Z,33.28
2023-03-10T14:20:40.150Z,33.37
2023-03-10T14:23:20.232Z,39.33
2023-03-10T14:25:54.214Z,36.29
2023-03-10T14:28:28.986Z,34.17
2023-03-10T14:31:04.881Z,36.24
2023-03-10T14:33:34.029Z,34.78
2023-03-10T14:36:01.757Z,33.97
2023-03-10T14:38:29.598Z,32.86
2023-03-10T14:40:57.328Z,32.82
2023-03-10T14:43:27.685Z,33.01
2023-03-10T14:45:58.868Z,33.73
2023-03-10T14:48:30.045Z,32.66
2023-03-10T14:50:58.052Z,32.20
2023-03-10T14:53:27.597Z,32.32
2023-03-10T14:55:57.355Z,32.51
2023-03-10T14:58:46.110Z,32.71
2023-03-10T15:01:15.053Z,33.85
2023-03-10T15:03:43.268Z,35.53
2023-03-10T15:06:14.965Z,37.75
2023-03-10T15:08:42.836Z,36.06
2023-03-10T15:11:10.946Z,34.27
2023-03-10T15:13:39.460Z,33.48
2023-03-10T15:16:07.899Z,32.93
2023-03-10T15:18:35.614Z,32.73
2023-03-10T15:21:03.816Z,33.85
2023-03-10T15:23:31.705Z,35.02
2023-03-10T15:25:59.682Z,34.57
2023-03-10T15:28:28.307Z,34.26
2023-03-10T15:30:56.598Z,33.56
2023-03-10T15:33:24.457Z,32.96
2023-03-10T15:35:53.483Z,31.77
2023-03-10T15:38:21.788Z,31.81
2023-03-10T15:40:50.012Z,31.60
2023-03-10T15:43:18.044Z,31.40
2023-03-10T15:45:51.275Z,31.63
2023-03-10T15:48:19.294Z,31.91
2023-03-10T15:50:48.017Z,32.39
2023-03-10T15:53:16.569Z,32.79
2023-03-10T15:55:45.196Z,32.58
2023-03-10T15:58:13.265Z,34.05
2023-03-10T16:00:44.099Z,33.78
2023-03-10T16:03:12.922Z,33.30
2023-03-10T16:05:48.097Z,33.24
2023-03-10T16:08:16.512Z,32.47
2023-03-10T16:10:54.653Z,31.74
2023-03-10T16:13:23.959Z,32.29
2023-03-10T16:15:52.898Z,32.80
2023-03-10T16:18:20.966Z,32.48
2023-03-10T16:21:00.022Z,33.67
2023-03-10T16:23:30.505Z,33.52
2023-03-10T16:26:14.920Z,32.50
2023-03-10T16:28:49.167Z,32.45
2023-03-10T16:31:20.094Z,33.00
2023-03-10T16:33:53.844Z,32.76
2023-03-10T16:36:24.790Z,32.28
2023-03-10T16:38:53.856Z,32.32
2023-03-10T16:41:24.318Z,33.03
2023-03-10T16:43:54.531Z,35.30
2023-03-10T16:46:25.946Z,33.90
2023-03-10T16:48:56.000Z,33.30
2023-03-10T16:51:38.778Z,34.45
2023-03-10T16:54:09.929Z,34.72
2023-03-10T16:56:41.919Z,35.10
2023-03-10T16:59:14.193Z,35.28
2023-03-10T17:01:44.411Z,35.70
2023-03-10T17:04:12.729Z,34.78
2023-03-10T17:06:41.586Z,35.68
2023-03-10T17:09:10.910Z,36.78
2023-03-10T17:11:46.837Z,35.95
2023-03-10T17:14:17.308Z,36.52
2023-03-10T17:16:46.418Z,36.75
2023-03-10T17:19:19.655Z,35.86
2023-03-10T17:21:50.043Z,35.42
2023-03-10T17:24:20.361Z,35.81
2023-03-10T17:26:48.382Z,35.29
2023-03-10T17:29:16.397Z,34.74
2023-03-10T17:31:48.933Z,34.49
2023-03-10T17:34:16.801Z,35.24
2023-03-10T17:36:45.272Z,36.45
2023-03-10T17:39:19.143Z,37.73
2023-03-10T17:41:47.259Z,38.20
2023-03-10T17:44:16.123Z,38.55
2023-03-10T17:46:44.120Z,39.19
2023-03-10T17:49:13.395Z,39.52
2023-03-10T17:51:44.909Z,39.15
2023-03-10T17:54:16.177Z,38.66
2023-03-10T17:56:44.142Z,38.40
2023-03-10T17:59:14.385Z,38.35
2023-03-10T18:01:44.236Z,38.04
2023-03-10T18:04:12.455Z,38.01
2023-03-10T18:06:40.302Z,38.24
2023-03-10T18:09:12.276Z,38.42
2023-03-10T18:11:40.530Z,38.80
2023-03-10T18:14:08.590Z,38.49
2023-03-10T18:16:39.948Z,38.48
2023-03-10T18:19:10.785Z,38.80
2023-03-10T18:21:40.226Z,39.01
2023-03-10T18:24:08.964Z,38.76
2023-03-10T18:26:38.215Z,39.72
2023-03-10T18:29:09.015Z,40.35
2023-03-10T18:31:37.599Z,40.05
2023-03-10T18:34:06.126Z,39.97
2023-03-10T18:36:34.188Z,39.98
2023-03-10T18:39:07.433Z,40.07
2023-03-10T18:41:36.256Z,39.63
2023-03-10T18:44:05.106Z,39.10
2023-03-10T18:46:32.998Z,39.23
2023-03-10T18:49:01.070Z,39.06
2023-03-10T18:51:29.253Z,38.56
2023-03-10T18:53:57.118Z,39.66
2023-03-10T18:56:28.859Z,39.01
2023-03-10T18:58:56.821Z,39.59
2023-03-10T19:01:25.821Z,39.33
2023-03-10T19:03:53.814Z,39.10
2023-03-10T19:06:23.083Z,38.76
2023-03-10T19:08:53.495Z,38.34
2023-03-10T19:11:24.787Z,38.36
2023-03-10T19:13:52.865Z,37.86
2023-03-10T19:16:21.662Z,37.82
2023-03-10T19:18:49.754Z,37.68
2023-03-10T19:21:17.850Z,37.34
2023-03-10T19:23:45.889Z,37.72
2023-03-10T19:26:13.736Z,37.51
2023-03-10T19:28:41.683Z,37.38
2023-03-10T19:31:14.922Z,37.30
2023-03-10T19:33:43.251Z,37.22
2023-03-10T19:36:13.356Z,37.20
2023-03-10T19:38:43.270Z,37.53
2023-03-10T19:41:13.792Z,37.77
2023-03-10T19:43:42.518Z,38.21
2023-03-10T19:46:13.311Z,37.98
2023-03-10T19:48:42.057Z,38.05
2023-03-10T19:51:20.386Z,38.17
2023-03-10T19:53:51.674Z,38.34
2023-03-10T19:56:20.234Z,38.96
2023-03-10T19:58:50.297Z,38.51
2023-03-10T20:01:25.380Z,38.38
2023-03-10T20:03:59.485Z,38.31
2023-03-10T20:06:28.604Z,38.47
2023-03-10T20:08:58.511Z,38.91
2023-03-10T20:11:26.395Z,38.98
2023-03-10T20:13:54.583Z,39.31
2023-03-10T20:16:24.417Z,39.01
2023-03-10T20:21:20.137Z,39.06
2023-03-10T20:23:48.738Z,39.19
2023-03-10T20:26:17.292Z,38.77
2023-03-10T20:28:46.034Z,39.15
2023-03-10T20:31:22.645Z,38.74
2023-03-10T20:33:50.443Z,38.94
2023-03-10T20:36:18.979Z,38.82
2023-03-10T20:38:47.633Z,39.18
2023-03-10T20:41:17.454Z,38.60
2023-03-10T20:43:45.516Z,37.86
2023-03-10T20:46:13.876Z,38.09
2023-03-10T20:48:41.910Z,38.19
2023-03-10T20:51:09.741Z,37.64
2023-03-10T20:53:37.728Z,37.94
2023-03-10T20:56:11.979Z,37.44
2023-03-10T20:58:40.054Z,37.84
2023-03-10T21:01:15.783Z,37.67
2023-03-10T21:06:11.171Z,37.60
2023-03-10T21:08:39.128Z,37.56
2023-03-10T21:11:07.096Z,37.80
2023-03-10T21:13:34.872Z,37.40
2023-03-10T21:16:02.784Z,37.02
2023-03-10T21:18:30.530Z,36.75
2023-03-10T21:20:58.330Z,36.44
2023-03-10T21:23:26.243Z,36.89
2023-03-10T21:25:53.892Z,36.98
2023-03-10T21:28:21.752Z,36.34
2023-03-10T21:30:49.528Z,36.84
2023-03-10T21:33:17.333Z,36.51
2023-03-10T21:35:47.756Z,36.68
2023-03-10T21:38:15.850Z,36.56
2023-03-10T21:40:44.708Z,36.74
2023-03-10T21:43:13.686Z,36.86
2023-03-10T21:45:41.437Z,36.85
2023-03-10T21:48:11.382Z,36.63
2023-03-10T21:50:39.219Z,37.05
2023-03-10T21:53:07.169Z,37.05
2023-03-10T21:55:36.414Z,36.79
2023-03-10T21:58:05.765Z,37.34
2023-03-10T22:00:36.208Z,37.24
2023-03-10T22:03:04.805Z,36.89
2023-03-10T22:05:32.528Z,37.16
2023-03-10T22:08:00.281Z,36.85
2023-03-10T22:10:28.138Z,36.60
2023-03-10T22:12:55.889Z,36.64
2023-03-10T22:15:26.279Z,36.67
2023-03-10T22:17:55.513Z,37.07
2023-03-10T22:20:26.354Z,36.85
2023-03-10T22:22:54.351Z,36.84
2023-03-10T22:25:22.195Z,36.62
2023-03-10T22:27:55.167Z,36.76
2023-03-10T22:30:25.472Z,37.02
2023-03-10T22:32:54.554Z,36.99
2023-03-10T22:35:23.185Z,36.86
2023-03-10T22:37:51.682Z,37.37
2023-03-10T22:40:23.098Z,37.20
2023-03-10T22:42:54.046Z,37.39
2023-03-10T22:45:25.898Z,37.17
2023-03-10T22:47:56.903Z,37.33
2023-03-10T22:50:33.279Z,37.44
2023-03-10T22:53:04.271Z,37.47
2023-03-10T22:55:35.741Z,37.37
2023-03-10T22:58:06.467Z,37.17
2023-03-10T23:00:34.934Z,37.11
2023-03-10T23:03:04.975Z,37.46
2023-03-10T23:05:32.853Z,37.38
2023-03-10T23:08:00.663Z,37.31
2023-03-10T23:10:33.959Z,37.70
2023-03-10T23:13:04.004Z,37.30
2023-03-10T23:15:35.300Z,37.22
2023-03-10T23:18:04.002Z,37.11
2023-03-10T23:20:36.058Z,37.16
2023-03-10T23:23:05.811Z,37.18
2023-03-10T23:25:42.846Z,37.35
2023-03-10T23:28:11.484Z,37.58
2023-03-10T23:30:41.185Z,37.56
2023-03-10T23:33:14.373Z,37.68
2023-03-10T23:35:43.713Z,37.72
2023-03-10T23:38:12.273Z,37.76
2023-03-10T23:40:40.398Z,37.69
2023-03-10T23:43:08.429Z,37.28
2023-03-10T23:45:38.736Z,37.56
2023-03-10T23:48:12.294Z,37.38
2023-03-10T23:50:42.725Z,37.14
2023-03-10T23:53:12.173Z,37.33
2023-03-10T23:55:43.474Z,37.21
2023-03-10T23:58:12.096Z,37.46
